Time;durP1;ratioP1;P1;durP2;ratioP2;P2;SDS_P1;SDS_P2;PMS_P1;PMS_P2;Temp;Humidity;BMP_temperature;BMP_pressure;BME280_temperature;BME280_humidity;BME280_pressure;Samples;Min_cycle;Max_cycle;Signal;HPM_P1;HPM_P2
2022/09/05 00:01:32;;;;;;;0.97;0.97;;;;;;;;;;4981744;28;20500;-59
2022/09/05 00:04:06;;;;;;;0.90;0.90;;;;;;;;;;4993019;28;20720;-59
2022/09/05 00:06:32;;;;;;;0.90;0.90;;;;;;;;;;5016780;28;20303;-58
2022/09/05 00:09:04;;;;;;;0.90;0.90;;;;;;;;;;4974023;28;20229;-59
2022/09/05 00:11:35;;;;;;;1.00;1.00;;;;;;;;;;5000091;28;20701;-59
2022/09/05 00:14:20;;;;;;;1.20;1.20;;;;;;;;;;4963541;28;20248;-59
2022/09/05 00:16:53;;;;;;;0.93;0.93;;;;;;;;;;4981921;28;20312;-59
2022/09/05 00:19:19;;;;;;;0.70;0.70;;;;;;;;;;4994178;28;20233;-59
2022/09/05 00:21:48;;;;;;;0.70;0.70;;;;;;;;;;4987887;28;20248;-59
2022/09/05 00:24:28;;;;;;;0.70;0.70;;;;;;;;;;4981451;28;20229;-59
2022/09/05 00:26:57;;;;;;;0.70;0.70;;;;;;;;;;4990677;28;20229;-59
2022/09/05 00:29:42;;;;;;;0.60;0.60;;;;;;;;;;4964272;28;20689;-58
2022/09/05 00:32:08;;;;;;;0.80;0.80;;;;;;;;;;4978613;28;20944;-59
2022/09/05 00:34:53;;;;;;;0.90;0.90;;;;;;;;;;4990592;28;20574;-58
2022/09/05 00:37:45;;;;;;;0.70;0.70;;;;;;;;;;5000787;28;20236;-59
2022/09/05 00:40:15;;;;;;;0.70;0.70;;;;;;;;;;4995803;28;20245;-59
2022/09/05 00:42:41;;;;;;;0.90;0.90;;;;;;;;;;4985569;28;20225;-59
2022/09/05 00:45:07;;;;;;;0.80;0.80;;;;;;;;;;4980826;28;20862;-59
2022/09/05 00:47:47;;;;;;;1.00;1.00;;;;;;;;;;4989737;28;20255;-59
2022/09/05 00:50:14;;;;;;;1.00;1.00;;;;;;;;;;5001181;28;20226;-59
2022/09/05 00:52:57;;;;;;;0.90;0.90;;;;;;;;;;5002311;28;20221;-59
2022/09/05 00:55:25;;;;;;;0.90;0.90;;;;;;;;;;5003350;28;20531;-58
2022/09/05 00:57:51;;;;;;;1.03;1.03;;;;;;;;;;5001689;28;20239;-59
2022/09/05 01:00:23;;;;;;;0.97;0.97;;;;;;;;;;4987593;28;20231;-59
2022/09/05 01:02:55;;;;;;;0.90;0.90;;;;;;;;;;4999105;28;20222;-58
2022/09/05 01:05:40;;;;;;;1.20;1.20;;;;;;;;;;4996233;28;20214;-58
2022/09/05 01:08:24;;;;;;;1.00;1.00;;;;;;;;;;4997711;28;20229;-59
2022/09/05 01:10:53;;;;;;;0.97;0.97;;;;;;;;;;4997714;28;20232;-59
2022/09/05 01:13:22;;;;;;;0.90;0.90;;;;;;;;;;5001740;28;20218;-59
2022/09/05 01:16:06;;;;;;;0.90;0.90;;;;;;;;;;4980702;28;20228;-59
2022/09/05 01:18:50;;;;;;;1.03;1.03;;;;;;;;;;4997150;28;20312;-59
2022/09/05 01:21:19;;;;;;;0.90;0.90;;;;;;;;;;4995797;28;20308;-59
2022/09/05 01:23:49;;;;;;;1.23;1.23;;;;;;;;;;4999452;28;20229;-59
2022/09/05 01:26:18;;;;;;;1.23;1.23;;;;;;;;;;5000988;28;20278;-59
2022/09/05 01:28:47;;;;;;;1.30;1.30;;;;;;;;;;4997649;28;20229;-59
2022/09/05 01:31:22;;;;;;;1.00;1.00;;;;;;;;;;5005770;28;20233;-59
2022/09/05 01:33:54;;;;;;;1.07;1.07;;;;;;;;;;5012710;28;20217;-58
2022/09/05 01:36:23;;;;;;;1.10;1.10;;;;;;;;;;5004498;28;20630;-58
2022/09/05 01:39:05;;;;;;;1.20;1.20;;;;;;;;;;4998468;28;20222;-59
2022/09/05 01:41:38;;;;;;;1.40;1.40;;;;;;;;;;5010935;28;20709;-59
2022/09/05 01:44:07;;;;;;;1.30;1.30;;;;;;;;;;5000745;28;20694;-59
2022/09/05 01:46:36;;;;;;;1.10;1.10;;;;;;;;;;4982652;28;20307;-59
2022/09/05 01:49:07;;;;;;;1.00;1.00;;;;;;;;;;5011454;28;20786;-59
2022/09/05 01:51:40;;;;;;;1.13;1.13;;;;;;;;;;4995295;28;20244;-59
2022/09/05 01:54:14;;;;;;;1.00;1.00;;;;;;;;;;4980389;28;20312;-59
2022/09/05 01:56:59;;;;;;;1.10;1.10;;;;;;;;;;4998201;28;20215;-59
2022/09/05 01:59:47;;;;;;;1.00;1.00;;;;;;;;;;4986939;28;20674;-59
2022/09/05 02:02:32;;;;;;;1.00;1.00;;;;;;;;;;5000309;28;20233;-59
2022/09/05 02:05:11;;;;;;;1.10;1.10;;;;;;;;;;4987394;28;20268;-60
2022/09/05 02:07:46;;;;;;;1.00;1.00;;;;;;;;;;4997003;28;20641;-59
2022/09/05 02:10:26;;;;;;;0.90;0.90;;;;;;;;;;4985649;28;20651;-59
2022/09/05 02:12:57;;;;;;;1.20;1.20;;;;;;;;;;4986237;28;20260;-59
2022/09/05 02:15:25;;;;;;;1.10;1.10;;;;;;;;;;4975839;28;20221;-59
2022/09/05 02:17:51;;;;;;;1.50;1.50;;;;;;;;;;4991534;28;20229;-59
2022/09/05 02:20:17;;;;;;;1.30;1.30;;;;;;;;;;5000821;28;20375;-59
2022/09/05 02:22:44;;;;;;;1.40;1.40;;;;;;;;;;4991254;28;20780;-57
2022/09/05 02:25:24;;;;;;;1.20;1.20;;;;;;;;;;4976487;28;20289;-61
2022/09/05 02:28:00;;;;;;;1.20;1.20;;;;;;;;;;4962488;28;20313;-59
2022/09/05 02:30:28;;;;;;;1.23;1.23;;;;;;;;;;4972953;28;20683;-59
2022/09/05 02:32:57;;;;;;;1.10;1.10;;;;;;;;;;4990556;28;20597;-58
2022/09/05 02:35:26;;;;;;;1.43;1.43;;;;;;;;;;5006878;28;20272;-58
2022/09/05 02:38:10;;;;;;;1.10;1.10;;;;;;;;;;4989103;28;20234;-59
2022/09/05 02:40:36;;;;;;;1.20;1.20;;;;;;;;;;4991671;28;20322;-59
2022/09/05 02:43:05;;;;;;;0.70;0.70;;;;;;;;;;5015508;28;20220;-57
2022/09/05 02:45:38;;;;;;;0.93;0.93;;;;;;;;;;4991743;28;20649;-59
2022/09/05 02:48:08;;;;;;;0.90;0.90;;;;;;;;;;4962146;28;20231;-58
2022/09/05 02:50:45;;;;;;;0.90;0.90;;;;;;;;;;4978552;28;20240;-59
2022/09/05 02:53:12;;;;;;;1.00;1.00;;;;;;;;;;4996169;28;20233;-59
2022/09/05 02:55:38;;;;;;;0.90;0.90;;;;;;;;;;4993434;28;20230;-59
2022/09/05 02:58:13;;;;;;;0.97;0.97;;;;;;;;;;4993300;28;20218;-59
2022/09/05 03:00:41;;;;;;;0.83;0.83;;;;;;;;;;4990377;28;20289;-58
2022/09/05 03:03:34;;;;;;;0.70;0.70;;;;;;;;;;4980303;28;20229;-58
2022/09/05 03:06:07;;;;;;;0.70;0.70;;;;;;;;;;4974843;28;20233;-59
2022/09/05 03:08:54;;;;;;;0.70;0.70;;;;;;;;;;4985471;28;20232;-59
2022/09/05 03:11:26;;;;;;;0.70;0.70;;;;;;;;;;4973238;28;20248;-59
2022/09/05 03:14:17;;;;;;;0.80;0.80;;;;;;;;;;4989454;28;20647;-58
2022/09/05 03:16:43;;;;;;;0.90;0.90;;;;;;;;;;4968160;28;20704;-59
2022/09/05 03:19:28;;;;;;;0.80;0.80;;;;;;;;;;4985825;28;20239;-58
2022/09/05 03:21:54;;;;;;;1.00;1.00;;;;;;;;;;4977947;28;20934;-58
2022/09/05 03:24:26;;;;;;;0.90;0.90;;;;;;;;;;4985474;28;20344;-59
2022/09/05 03:26:52;;;;;;;1.20;1.20;;;;;;;;;;4998141;28;20802;-59
2022/09/05 03:29:31;;;;;;;1.07;1.07;;;;;;;;;;5006535;28;20294;-59
2022/09/05 03:32:06;;;;;;;0.90;0.90;;;;;;;;;;4977090;28;20226;-58
2022/09/05 03:34:38;;;;;;;0.87;0.87;;;;;;;;;;4992627;28;20232;-59
2022/09/05 03:37:17;;;;;;;1.10;1.10;;;;;;;;;;5013843;28;20233;-58
2022/09/05 03:40:04;;;;;;;1.00;1.00;;;;;;;;;;4997826;28;20225;-59
2022/09/05 03:42:49;;;;;;;1.00;1.00;;;;;;;;;;4981477;28;20349;-58
2022/09/05 03:45:21;;;;;;;1.00;1.00;;;;;;;;;;4979221;28;20218;-59
2022/09/05 03:47:47;;;;;;;1.10;1.10;;;;;;;;;;4998698;28;20227;-59
2022/09/05 03:50:28;;;;;;;0.90;0.90;;;;;;;;;;4984684;28;21297;-58
2022/09/05 03:53:24;;;;;;;0.90;0.90;;;;;;;;;;5026653;28;20279;-59
2022/09/05 03:55:54;;;;;;;1.00;1.00;;;;;;;;;;4991626;28;20253;-58
2022/09/05 03:58:22;;;;;;;1.00;1.00;;;;;;;;;;5008463;28;20236;-58
2022/09/05 04:01:08;;;;;;;1.13;1.13;;;;;;;;;;5001031;28;20282;-58
2022/09/05 04:03:39;;;;;;;1.00;1.00;;;;;;;;;;4981948;28;20232;-59
2022/09/05 04:06:13;;;;;;;1.00;1.00;;;;;;;;;;4990380;28;20219;-59
2022/09/05 04:08:55;;;;;;;1.30;1.30;;;;;;;;;;4992517;28;20220;-58
2022/09/05 04:11:24;;;;;;;1.10;1.10;;;;;;;;;;4983997;28;20261;-59
2022/09/05 04:14:01;;;;;;;1.10;1.10;;;;;;;;;;4999424;28;21236;-59
2022/09/05 04:16:31;;;;;;;1.10;1.10;;;;;;;;;;4997530;28;20227;-58
2022/09/05 04:19:03;;;;;;;1.30;1.30;;;;;;;;;;4980543;28;20327;-59
2022/09/05 04:21:30;;;;;;;1.40;1.40;;;;;;;;;;5001628;28;20220;-56
2022/09/05 04:24:02;;;;;;;1.10;1.10;;;;;;;;;;4986734;28;20844;-58
2022/09/05 04:26:41;;;;;;;1.13;1.13;;;;;;;;;;5005496;28;20235;-59
2022/09/05 04:29:16;;;;;;;1.17;1.17;;;;;;;;;;5002268;28;20249;-58
2022/09/05 04:32:06;;;;;;;1.20;1.20;;;;;;;;;;4997538;28;20259;-59
2022/09/05 04:34:47;;;;;;;1.20;1.20;;;;;;;;;;4985589;28;20228;-58
2022/09/05 04:37:30;;;;;;;1.10;1.10;;;;;;;;;;5018714;28;20232;-58
2022/09/05 04:39:55;;;;;;;1.10;1.10;;;;;;;;;;5008547;28;20212;-59
2022/09/05 04:42:25;;;;;;;1.23;1.23;;;;;;;;;;4997444;28;20294;-58
2022/09/05 04:44:52;;;;;;;1.30;1.30;;;;;;;;;;5009573;28;20212;-59
2022/09/05 04:47:22;;;;;;;1.23;1.23;;;;;;;;;;5013879;28;20948;-58
2022/09/05 04:50:09;;;;;;;0.90;0.90;;;;;;;;;;4996182;28;20252;-58
2022/09/05 04:52:44;;;;;;;0.80;0.80;;;;;;;;;;4996347;28;20256;-58
2022/09/05 04:55:10;;;;;;;0.83;0.83;;;;;;;;;;5012043;28;20237;-56
2022/09/05 04:57:57;;;;;;;0.90;0.90;;;;;;;;;;5010766;28;20231;-56
2022/09/05 05:00:32;;;;;;;0.70;0.70;;;;;;;;;;5018346;28;20592;-58
2022/09/05 05:02:59;;;;;;;0.80;0.80;;;;;;;;;;5009732;28;20237;-57
2022/09/05 05:05:26;;;;;;;0.90;0.90;;;;;;;;;;5025430;28;20224;-56
2022/09/05 05:07:56;;;;;;;1.00;1.00;;;;;;;;;;4985922;28;20311;-56
2022/09/05 05:10:30;;;;;;;1.20;1.20;;;;;;;;;;5023877;28;20232;-57
2022/09/05 05:13:02;;;;;;;1.13;1.13;;;;;;;;;;4999106;28;20982;-58
2022/09/05 05:15:29;;;;;;;0.90;0.90;;;;;;;;;;4998986;28;20230;-57
2022/09/05 05:18:13;;;;;;;1.07;1.07;;;;;;;;;;5014091;28;20221;-57
2022/09/05 05:20:43;;;;;;;1.00;1.00;;;;;;;;;;4999205;28;20232;-57
2022/09/05 05:23:16;;;;;;;1.50;1.50;;;;;;;;;;4975605;28;20297;-58
2022/09/05 05:25:47;;;;;;;1.50;1.50;;;;;;;;;;4999379;28;20223;-57
2022/09/05 05:28:36;;;;;;;1.40;1.40;;;;;;;;;;5002086;28;21830;-58
2022/09/05 05:31:09;;;;;;;1.50;1.50;;;;;;;;;;4993347;28;20256;-56
2022/09/05 05:33:35;;;;;;;1.50;1.50;;;;;;;;;;4986916;28;20232;-56
2022/09/05 05:36:02;;;;;;;1.40;1.40;;;;;;;;;;5005323;28;20309;-58
2022/09/05 05:38:34;;;;;;;1.57;1.57;;;;;;;;;;5018502;28;20218;-57
2022/09/05 05:41:06;;;;;;;1.77;1.70;;;;;;;;;;5029940;28;20689;-58
2022/09/05 05:43:38;;;;;;;1.30;1.30;;;;;;;;;;5011163;28;20246;-56
2022/09/05 05:46:04;;;;;;;1.53;1.53;;;;;;;;;;5020037;28;20220;-57
2022/09/05 05:48:37;;;;;;;1.30;1.30;;;;;;;;;;5006912;28;20232;-56
2022/09/05 05:51:11;;;;;;;1.30;1.30;;;;;;;;;;4990782;28;20233;-57
2022/09/05 05:53:46;;;;;;;1.40;1.40;;;;;;;;;;4971509;28;20234;-57
2022/09/05 05:56:25;;;;;;;1.30;1.30;;;;;;;;;;5016266;28;20241;-57
2022/09/05 05:58:51;;;;;;;1.30;1.30;;;;;;;;;;4995715;28;20238;-57
2022/09/05 06:01:17;;;;;;;1.30;1.30;;;;;;;;;;5017830;28;20237;-59
2022/09/05 06:04:01;;;;;;;1.43;1.43;;;;;;;;;;5011174;28;20224;-57
2022/09/05 06:06:37;;;;;;;1.30;1.30;;;;;;;;;;5011464;28;20221;-56
2022/09/05 06:09:11;;;;;;;1.40;1.40;;;;;;;;;;4979718;28;20317;-56
2022/09/05 06:11:49;;;;;;;1.33;1.33;;;;;;;;;;4993548;28;20225;-57
2022/09/05 06:14:18;;;;;;;1.30;1.30;;;;;;;;;;4999693;28;20225;-56
2022/09/05 06:16:47;;;;;;;1.30;1.30;;;;;;;;;;5011475;28;20307;-57
2022/09/05 06:19:16;;;;;;;1.50;1.50;;;;;;;;;;4988114;28;20219;-56
2022/09/05 06:22:21;;;;;;;1.40;1.40;;;;;;;;;;5018864;28;20279;-57
2022/09/05 06:25:02;;;;;;;1.30;1.30;;;;;;;;;;4940478;28;20730;-57
2022/09/05 06:27:33;;;;;;;1.30;1.30;;;;;;;;;;4922602;28;20244;-57
2022/09/05 06:30:06;;;;;;;1.30;1.30;;;;;;;;;;4971599;28;21301;-56
2022/09/05 06:32:35;;;;;;;1.30;1.30;;;;;;;;;;5002492;28;20225;-56
2022/09/05 06:35:17;;;;;;;1.20;1.20;;;;;;;;;;5018335;28;20234;-57
2022/09/05 06:38:01;;;;;;;1.40;1.40;;;;;;;;;;5000742;28;20227;-54
2022/09/05 06:40:27;;;;;;;1.40;1.40;;;;;;;;;;5007573;28;21037;-58
2022/09/05 06:42:56;;;;;;;1.50;1.50;;;;;;;;;;5026625;28;20708;-57
2022/09/05 06:45:22;;;;;;;1.20;1.20;;;;;;;;;;5025740;28;20209;-57
2022/09/05 06:47:49;;;;;;;1.30;1.30;;;;;;;;;;5012067;28;20664;-58
2022/09/05 06:50:17;;;;;;;1.43;1.43;;;;;;;;;;5011984;28;20233;-58
2022/09/05 06:52:46;;;;;;;1.40;1.40;;;;;;;;;;5014768;28;20228;-58
2022/09/05 06:55:17;;;;;;;1.33;1.33;;;;;;;;;;5022376;28;20258;-58
2022/09/05 06:57:55;;;;;;;1.20;1.20;;;;;;;;;;5026154;28;20681;-59
2022/09/05 07:00:28;;;;;;;1.40;1.40;;;;;;;;;;5028155;28;20221;-57
2022/09/05 07:03:10;;;;;;;1.20;1.20;;;;;;;;;;5013993;28;20228;-57
2022/09/05 07:05:41;;;;;;;1.40;1.40;;;;;;;;;;5011490;28;20252;-58
2022/09/05 07:08:10;;;;;;;1.20;1.20;;;;;;;;;;5012189;28;20229;-58
2022/09/05 07:10:37;;;;;;;1.47;1.47;;;;;;;;;;5014297;28;20240;-58
2022/09/05 07:13:16;;;;;;;1.47;1.47;;;;;;;;;;5025735;28;20299;-57
2022/09/05 07:15:51;;;;;;;1.20;1.20;;;;;;;;;;5017752;28;20276;-58
2022/09/05 07:18:36;;;;;;;1.43;1.43;;;;;;;;;;5003337;28;20598;-59
2022/09/05 07:21:20;;;;;;;1.30;1.30;;;;;;;;;;5003951;28;20220;-58
2022/09/05 07:23:54;;;;;;;1.50;1.50;;;;;;;;;;5022775;28;20220;-58
2022/09/05 07:26:20;;;;;;;1.20;1.20;;;;;;;;;;5012276;28;20224;-59
2022/09/05 07:28:47;;;;;;;1.10;1.10;;;;;;;;;;5010795;28;20611;-58
2022/09/05 07:31:16;;;;;;;1.40;1.40;;;;;;;;;;5005340;28;20221;-58
2022/09/05 07:33:43;;;;;;;1.27;1.27;;;;;;;;;;5013721;28;20278;-57
2022/09/05 07:36:10;;;;;;;1.20;1.20;;;;;;;;;;5006436;28;20235;-58
2022/09/05 07:38:37;;;;;;;1.20;1.20;;;;;;;;;;5014167;28;21048;-58
2022/09/05 07:41:05;;;;;;;1.30;1.30;;;;;;;;;;5026282;28;20307;-57
2022/09/05 07:43:40;;;;;;;1.20;1.20;;;;;;;;;;4997448;28;20228;-58
2022/09/05 07:46:11;;;;;;;1.20;1.20;;;;;;;;;;5020068;28;27256;-58
2022/09/05 07:48:41;;;;;;;1.33;1.33;;;;;;;;;;5022414;28;20243;-57
2022/09/05 07:51:08;;;;;;;1.10;1.10;;;;;;;;;;5018131;28;20306;-58
2022/09/05 07:53:35;;;;;;;1.20;1.20;;;;;;;;;;5014931;28;20220;-57
2022/09/05 07:56:01;;;;;;;1.10;1.10;;;;;;;;;;5019542;28;20776;-58
2022/09/05 07:58:48;;;;;;;1.40;1.40;;;;;;;;;;5034339;28;20319;-58
2022/09/05 08:01:15;;;;;;;1.40;1.40;;;;;;;;;;5015470;28;20231;-58
2022/09/05 08:03:42;;;;;;;1.20;1.20;;;;;;;;;;4993595;28;20228;-59
2022/09/05 08:06:09;;;;;;;1.20;1.20;;;;;;;;;;5020227;28;20231;-58
2022/09/05 08:08:45;;;;;;;1.33;1.33;;;;;;;;;;5010953;28;20573;-59
2022/09/05 08:11:11;;;;;;;1.67;1.67;;;;;;;;;;5006651;28;20228;-58
2022/09/05 08:13:43;;;;;;;1.40;1.40;;;;;;;;;;5009902;28;20268;-59
2022/09/05 08:16:09;;;;;;;1.50;1.50;;;;;;;;;;5022178;28;20228;-58
2022/09/05 08:18:36;;;;;;;1.50;1.50;;;;;;;;;;5012684;28;20610;-58
2022/09/05 08:21:13;;;;;;;1.40;1.40;;;;;;;;;;5008661;28;20225;-58
2022/09/05 08:24:08;;;;;;;1.40;1.40;;;;;;;;;;5019529;28;20224;-59
2022/09/05 08:26:38;;;;;;;1.40;1.40;;;;;;;;;;5015756;28;20748;-58
2022/09/05 08:29:34;;;;;;;1.55;1.55;;;;;;;;;;5023438;28;20227;-59
2022/09/05 08:32:08;;;;;;;1.50;1.50;;;;;;;;;;4998542;28;20324;-59
2022/09/05 08:34:36;;;;;;;1.40;1.40;;;;;;;;;;5009108;28;20371;-58
2022/09/05 08:37:04;;;;;;;1.60;1.60;;;;;;;;;;5018823;28;20592;-59
2022/09/05 08:39:30;;;;;;;1.50;1.50;;;;;;;;;;5015944;28;20285;-60
2022/09/05 08:42:04;;;;;;;1.50;1.50;;;;;;;;;;4999456;28;20702;-60
2022/09/05 08:44:33;;;;;;;1.52;1.52;;;;;;;;;;5017384;28;20210;-59
2022/09/05 08:47:24;;;;;;;1.50;1.50;;;;;;;;;;5023269;28;20756;-59
2022/09/05 08:49:50;;;;;;;1.60;1.60;;;;;;;;;;5020976;28;20248;-59
2022/09/05 08:52:34;;;;;;;1.40;1.40;;;;;;;;;;5012938;28;20291;-60
2022/09/05 08:55:19;;;;;;;1.40;1.40;;;;;;;;;;5017497;28;20225;-59
2022/09/05 08:57:45;;;;;;;1.60;1.60;;;;;;;;;;5013435;28;20264;-59
2022/09/05 09:00:13;;;;;;;1.60;1.60;;;;;;;;;;5025755;28;20306;-60
2022/09/05 09:02:58;;;;;;;1.70;1.70;;;;;;;;;;4998206;28;20283;-60
2022/09/05 09:05:31;;;;;;;1.60;1.60;;;;;;;;;;5017271;28;20304;-59
2022/09/05 09:08:16;;;;;;;1.50;1.50;;;;;;;;;;5018989;28;20591;-59
2022/09/05 09:10:45;;;;;;;1.40;1.40;;;;;;;;;;5024787;28;20610;-60
2022/09/05 09:13:30;;;;;;;1.30;1.30;;;;;;;;;;5024954;28;20235;-60
2022/09/05 09:15:56;;;;;;;1.40;1.40;;;;;;;;;;5015920;28;20238;-59
2022/09/05 09:18:22;;;;;;;1.40;1.40;;;;;;;;;;5021735;28;20293;-59
2022/09/05 09:20:51;;;;;;;1.38;1.38;;;;;;;;;;5009070;28;20290;-59
2022/09/05 09:23:36;;;;;;;1.20;1.20;;;;;;;;;;5020293;28;20728;-59
2022/09/05 09:26:19;;;;;;;1.40;1.40;;;;;;;;;;5018508;28;20230;-60
2022/09/05 09:28:48;;;;;;;1.38;1.38;;;;;;;;;;5006635;28;20358;-59
2022/09/05 09:31:29;;;;;;;1.35;1.35;;;;;;;;;;5020941;28;20594;-59
2022/09/05 09:34:07;;;;;;;1.20;1.20;;;;;;;;;;5024279;28;20230;-59
2022/09/05 09:36:50;;;;;;;1.20;1.20;;;;;;;;;;5007529;28;20238;-58
2022/09/05 09:39:22;;;;;;;0.80;0.80;;;;;;;;;;5003078;28;20236;-59
2022/09/05 09:41:48;;;;;;;1.33;1.33;;;;;;;;;;5018044;28;20232;-60
2022/09/05 09:44:32;;;;;;;1.20;1.20;;;;;;;;;;5018562;28;20217;-60
2022/09/05 09:46:58;;;;;;;1.23;1.23;;;;;;;;;;5025310;28;20225;-59
2022/09/05 09:49:29;;;;;;;1.30;1.30;;;;;;;;;;5020856;28;20251;-60
2022/09/05 09:52:07;;;;;;;1.20;1.20;;;;;;;;;;5007893;28;20236;-59
2022/09/05 09:54:52;;;;;;;1.10;1.10;;;;;;;;;;5018066;28;20219;-59
2022/09/05 09:57:21;;;;;;;1.00;1.00;;;;;;;;;;5012695;28;20217;-59
2022/09/05 09:59:47;;;;;;;1.10;1.10;;;;;;;;;;5021441;28;20295;-60
2022/09/05 10:02:25;;;;;;;1.00;1.00;;;;;;;;;;5020440;28;20236;-59
2022/09/05 10:04:51;;;;;;;0.90;0.90;;;;;;;;;;5022327;28;20272;-60
2022/09/05 10:07:20;;;;;;;1.00;1.00;;;;;;;;;;5024784;28;20582;-61
2022/09/05 10:09:49;;;;;;;0.90;0.90;;;;;;;;;;5008600;28;20216;-60
2022/09/05 10:12:34;;;;;;;1.00;1.00;;;;;;;;;;5021374;28;20218;-60
2022/09/05 10:15:21;;;;;;;1.10;1.10;;;;;;;;;;5014151;28;20290;-59
2022/09/05 10:18:06;;;;;;;1.00;1.00;;;;;;;;;;5005184;28;20229;-59
2022/09/05 10:20:50;;;;;;;1.10;1.10;;;;;;;;;;5014266;28;20225;-60
2022/09/05 10:23:25;;;;;;;1.00;1.00;;;;;;;;;;5026843;28;20218;-60
2022/09/05 10:25:51;;;;;;;1.10;1.10;;;;;;;;;;5020315;28;20229;-60
2022/09/05 10:28:36;;;;;;;1.10;1.10;;;;;;;;;;5009733;28;20724;-60
2022/09/05 10:31:17;;;;;;;1.00;1.00;;;;;;;;;;5020810;28;20740;-60
2022/09/05 10:33:49;;;;;;;1.10;1.10;;;;;;;;;;5030340;28;20362;-60
2022/09/05 10:36:22;;;;;;;0.70;0.70;;;;;;;;;;5008664;28;20996;-60
2022/09/05 10:39:03;;;;;;;0.80;0.80;;;;;;;;;;5019520;28;20221;-60
2022/09/05 10:41:38;;;;;;;1.00;1.00;;;;;;;;;;5017201;28;20233;-60
2022/09/05 10:44:04;;;;;;;1.10;1.10;;;;;;;;;;5021018;28;20251;-60
2022/09/05 10:46:39;;;;;;;1.10;1.10;;;;;;;;;;5011115;28;20252;-60
2022/09/05 10:49:06;;;;;;;1.00;1.00;;;;;;;;;;5023163;28;20728;-61
2022/09/05 10:51:35;;;;;;;1.00;1.00;;;;;;;;;;5006020;28;20820;-60
2022/09/05 10:54:21;;;;;;;1.10;1.10;;;;;;;;;;5018698;28;20228;-60
2022/09/05 10:56:48;;;;;;;1.13;1.13;;;;;;;;;;5021339;28;20220;-60
2022/09/05 10:59:27;;;;;;;1.10;1.10;;;;;;;;;;5024429;28;20690;-61
2022/09/05 11:02:16;;;;;;;1.10;1.10;;;;;;;;;;5000759;28;20228;-61
2022/09/05 11:05:01;;;;;;;1.20;1.20;;;;;;;;;;5016970;28;20315;-61
2022/09/05 11:07:35;;;;;;;1.10;1.10;;;;;;;;;;5024939;28;20219;-59
2022/09/05 11:10:10;;;;;;;1.10;1.10;;;;;;;;;;5003839;28;20220;-59
2022/09/05 11:12:39;;;;;;;1.00;1.00;;;;;;;;;;5013776;28;20233;-60
2022/09/05 11:15:25;;;;;;;1.00;1.00;;;;;;;;;;5007315;28;20326;-59
2022/09/05 11:18:10;;;;;;;1.10;1.10;;;;;;;;;;5007332;28;20276;-60
2022/09/05 11:20:39;;;;;;;1.10;1.10;;;;;;;;;;5014058;28;20326;-60
2022/09/05 11:23:09;;;;;;;1.17;1.17;;;;;;;;;;5006066;28;20748;-61
2022/09/05 11:25:35;;;;;;;1.20;1.20;;;;;;;;;;5025805;28;20220;-60
2022/09/05 11:28:06;;;;;;;1.10;1.10;;;;;;;;;;5007332;28;20220;-60
2022/09/05 11:30:33;;;;;;;1.20;1.20;;;;;;;;;;4999881;28;20243;-60
2022/09/05 11:33:14;;;;;;;1.02;1.02;;;;;;;;;;5014746;28;20276;-61
2022/09/05 11:35:58;;;;;;;1.10;1.10;;;;;;;;;;5025627;28;20314;-61
2022/09/05 11:38:34;;;;;;;1.00;1.00;;;;;;;;;;5021747;28;20228;-61
2022/09/05 11:41:03;;;;;;;1.10;1.10;;;;;;;;;;5017177;28;20225;-61
2022/09/05 11:43:32;;;;;;;1.10;1.10;;;;;;;;;;5018354;28;20616;-61
2022/09/05 11:45:58;;;;;;;1.10;1.10;;;;;;;;;;5015755;28;20338;-60
2022/09/05 11:48:27;;;;;;;1.10;1.10;;;;;;;;;;5024148;28;20225;-61
2022/09/05 11:50:52;;;;;;;1.10;1.10;;;;;;;;;;4999169;28;20330;-61
2022/09/05 11:53:24;;;;;;;1.10;1.10;;;;;;;;;;5004150;28;20220;-60
2022/09/05 11:55:58;;;;;;;1.10;1.10;;;;;;;;;;5008491;28;20235;-61
2022/09/05 11:58:33;;;;;;;1.00;1.00;;;;;;;;;;4980648;28;20224;-60
2022/09/05 12:01:09;;;;;;;1.10;1.10;;;;;;;;;;5001756;28;20579;-60
2022/09/05 12:03:54;;;;;;;1.20;1.20;;;;;;;;;;5010294;28;20227;-61
2022/09/05 12:06:40;;;;;;;1.10;1.10;;;;;;;;;;5009099;28;20661;-61
2022/09/05 12:09:28;;;;;;;1.00;1.00;;;;;;;;;;5010794;28;20216;-62
2022/09/05 12:12:09;;;;;;;1.10;1.10;;;;;;;;;;4981793;28;20231;-61
2022/09/05 12:14:37;;;;;;;1.20;1.20;;;;;;;;;;5009900;28;20232;-61
2022/09/05 12:17:18;;;;;;;1.20;1.20;;;;;;;;;;4985838;28;20723;-61
2022/09/05 12:19:57;;;;;;;1.13;1.13;;;;;;;;;;5019771;28;20228;-61
2022/09/05 12:22:31;;;;;;;1.20;1.20;;;;;;;;;;5005690;28;20224;-59
2022/09/05 12:25:19;;;;;;;1.10;1.10;;;;;;;;;;5011288;28;20247;-61
2022/09/05 12:27:50;;;;;;;1.10;1.10;;;;;;;;;;5006280;28;20220;-60
2022/09/05 12:30:26;;;;;;;1.10;1.10;;;;;;;;;;5011574;28;20211;-60
2022/09/05 12:33:02;;;;;;;1.20;1.20;;;;;;;;;;4993748;28;20310;-60
2022/09/05 12:35:48;;;;;;;1.10;1.10;;;;;;;;;;5000043;28;20319;-61
2022/09/05 12:38:24;;;;;;;1.10;1.10;;;;;;;;;;5007858;28;20727;-60
2022/09/05 12:41:20;;;;;;;1.17;1.17;;;;;;;;;;4995674;28;20221;-60
2022/09/05 12:44:00;;;;;;;1.10;1.10;;;;;;;;;;4990667;28;20450;-60
2022/09/05 12:47:00;;;;;;;1.10;1.10;;;;;;;;;;4995255;28;20347;-60
2022/09/05 12:49:37;;;;;;;1.00;1.00;;;;;;;;;;4942123;28;20764;-60
2022/09/05 12:52:04;;;;;;;1.20;1.20;;;;;;;;;;4981772;28;20244;-60
2022/09/05 12:54:33;;;;;;;1.15;1.15;;;;;;;;;;5007049;28;20241;-60
2022/09/05 12:57:10;;;;;;;1.33;1.33;;;;;;;;;;4977087;28;20236;-60
2022/09/05 12:59:39;;;;;;;1.30;1.30;;;;;;;;;;5007595;28;20716;-60
2022/09/05 13:02:06;;;;;;;1.50;1.50;;;;;;;;;;4991383;28;20275;-60
2022/09/05 13:04:34;;;;;;;1.30;1.30;;;;;;;;;;4985294;28;20226;-60
2022/09/05 13:07:06;;;;;;;1.40;1.40;;;;;;;;;;4997182;28;20220;-60
2022/09/05 13:09:42;;;;;;;1.27;1.27;;;;;;;;;;5001236;28;20675;-60
2022/09/05 13:12:11;;;;;;;1.40;1.40;;;;;;;;;;5011576;28;20232;-59
2022/09/05 13:14:52;;;;;;;1.40;1.40;;;;;;;;;;5014305;28;20237;-60
2022/09/05 13:17:19;;;;;;;1.50;1.50;;;;;;;;;;5003569;28;20300;-60
2022/09/05 13:19:50;;;;;;;1.45;1.45;;;;;;;;;;4982609;28;20236;-60
2022/09/05 13:22:17;;;;;;;1.30;1.30;;;;;;;;;;4990821;28;20220;-61
2022/09/05 13:24:45;;;;;;;1.40;1.40;;;;;;;;;;4998654;28;20225;-60
2022/09/05 13:27:13;;;;;;;1.40;1.40;;;;;;;;;;5005432;28;20294;-60
2022/09/05 13:29:52;;;;;;;1.38;1.38;;;;;;;;;;4988414;28;20225;-60
2022/09/05 13:32:36;;;;;;;1.50;1.50;;;;;;;;;;5007819;28;20231;-59
2022/09/05 13:35:06;;;;;;;1.50;1.50;;;;;;;;;;5001594;28;20228;-59
2022/09/05 13:37:36;;;;;;;1.50;1.50;;;;;;;;;;4980663;28;20276;-60
2022/09/05 13:40:14;;;;;;;1.60;1.60;;;;;;;;;;4991849;28;20606;-59
2022/09/05 13:42:43;;;;;;;1.40;1.40;;;;;;;;;;4987558;28;20217;-60
2022/09/05 13:45:14;;;;;;;1.45;1.45;;;;;;;;;;4951587;28;20225;-60
2022/09/05 13:47:53;;;;;;;1.40;1.40;;;;;;;;;;4980076;28;20729;-59
2022/09/05 13:50:24;;;;;;;1.40;1.40;;;;;;;;;;4978578;28;20228;-60
2022/09/05 13:52:55;;;;;;;1.30;1.30;;;;;;;;;;5009442;28;20831;-60
2022/09/05 13:55:21;;;;;;;1.30;1.30;;;;;;;;;;5005105;28;20229;-60
2022/09/05 13:57:55;;;;;;;1.30;1.30;;;;;;;;;;5020095;28;20254;-60
2022/09/05 14:00:21;;;;;;;1.10;1.10;;;;;;;;;;5015999;28;20229;-60
2022/09/05 14:03:03;;;;;;;1.00;1.00;;;;;;;;;;5002595;28;20415;-61
2022/09/05 14:05:38;;;;;;;1.20;1.20;;;;;;;;;;5002574;28;20229;-61
2022/09/05 14:08:15;;;;;;;1.30;1.30;;;;;;;;;;4999338;28;20280;-61
2022/09/05 14:10:42;;;;;;;1.30;1.30;;;;;;;;;;4999590;28;20711;-61
2022/09/05 14:13:10;;;;;;;1.40;1.40;;;;;;;;;;4992170;28;20239;-61
2022/09/05 14:15:39;;;;;;;1.30;1.30;;;;;;;;;;4998454;28;20237;-61
2022/09/05 14:18:05;;;;;;;1.40;1.40;;;;;;;;;;5002427;28;20731;-60
2022/09/05 14:23:30;;;;;;;1.30;1.30;;;;;;;;;;4986682;28;20292;-59
2022/09/05 14:26:01;;;;;;;1.30;1.30;;;;;;;;;;4998595;28;20697;-59
2022/09/05 14:28:32;;;;;;;1.40;1.40;;;;;;;;;;5000720;28;20818;-59
2022/09/05 14:31:07;;;;;;;1.30;1.30;;;;;;;;;;4981664;28;20443;-59
2022/09/05 14:33:46;;;;;;;1.20;1.20;;;;;;;;;;5009088;28;20600;-59
2022/09/05 14:36:31;;;;;;;1.30;1.30;;;;;;;;;;5005243;28;20651;-61
2022/09/05 14:39:19;;;;;;;1.42;1.42;;;;;;;;;;5000703;28;20695;-61
2022/09/05 14:41:57;;;;;;;1.20;1.20;;;;;;;;;;5002989;28;20258;-60
2022/09/05 14:44:37;;;;;;;1.20;1.20;;;;;;;;;;4997832;28;20213;-60
2022/09/05 14:47:50;;;;;;;1.20;1.20;;;;;;;;;;4996911;28;20242;-61
2022/09/05 14:50:42;;;;;;;1.20;1.20;;;;;;;;;;4985727;28;20230;-60
2022/09/05 14:53:19;;;;;;;1.25;1.25;;;;;;;;;;4968992;28;20643;-61
2022/09/05 14:55:54;;;;;;;1.20;1.20;;;;;;;;;;4977199;28;20235;-60
2022/09/05 14:58:24;;;;;;;1.27;1.27;;;;;;;;;;5006910;28;20232;-60
2022/09/05 15:00:55;;;;;;;1.20;1.20;;;;;;;;;;5004940;28;20758;-60
2022/09/05 15:03:22;;;;;;;1.10;1.10;;;;;;;;;;5012577;28;20752;-60
2022/09/05 15:05:50;;;;;;;1.10;1.10;;;;;;;;;;5001651;28;20218;-60
2022/09/05 15:08:20;;;;;;;1.10;1.10;;;;;;;;;;5005904;28;20225;-60
2022/09/05 15:10:47;;;;;;;1.20;1.20;;;;;;;;;;5000239;28;20924;-60
2022/09/05 15:13:17;;;;;;;1.20;1.20;;;;;;;;;;4992651;28;21003;-60
2022/09/05 15:15:49;;;;;;;1.25;1.25;;;;;;;;;;4997692;28;20590;-61
2022/09/05 15:18:20;;;;;;;1.20;1.20;;;;;;;;;;5006355;28;20318;-61
2022/09/05 15:20:49;;;;;;;1.20;1.20;;;;;;;;;;4994913;28;20336;-60
2022/09/05 15:23:18;;;;;;;1.30;1.30;;;;;;;;;;4997568;28;20224;-61
2022/09/05 15:26:05;;;;;;;1.20;1.20;;;;;;;;;;4998992;28;20677;-60
2022/09/05 15:28:33;;;;;;;1.20;1.20;;;;;;;;;;5002265;28;20235;-61